Time;durP1;ratioP1;P1;durP2;ratioP2;P2;SDS_P1;SDS_P2;PMS_P1;PMS_P2;Temp;Humidity;BMP_temperature;BMP_pressure;BME280_temperature;BME280_humidity;BME280_pressure;Samples;Min_cycle;Max_cycle;Signal;HPM_P1;HPM_P2
2024/01/23 00:01:31;;;;;;;21.60;4.28;;;;;;;8.96;63.71;101651.84;4947553;29;20048;-67
2024/01/23 00:03:59;;;;;;;17.63;3.45;;;;;;;9.03;63.67;101675.00;4944105;29;20044;-67
2024/01/23 00:06:27;;;;;;;11.60;2.72;;;;;;;9.03;63.45;101682.22;4941987;29;20052;-68
2024/01/23 00:08:55;;;;;;;16.98;2.83;;;;;;;9.02;63.37;101689.44;4949889;29;20280;-67
2024/01/23 00:11:23;;;;;;;14.85;2.65;;;;;;;9.00;64.04;101707.56;4948287;29;20061;-67
2024/01/23 00:13:51;;;;;;;19.38;3.30;;;;;;;9.02;63.84;101718.09;4947385;29;20051;-66
2024/01/23 00:16:19;;;;;;;18.13;3.42;;;;;;;9.00;63.06;101715.59;4949609;29;20134;-66
2024/01/23 00:18:48;;;;;;;16.65;3.35;;;;;;;8.97;63.38;101721.34;4942755;29;20505;-67
2024/01/23 00:21:16;;;;;;;14.52;3.65;;;;;;;8.99;63.01;101738.06;4951710;29;20055;-67
2024/01/23 00:23:44;;;;;;;17.65;4.13;;;;;;;8.93;62.43;101712.03;4943902;29;20106;-67
2024/01/23 00:26:12;;;;;;;11.35;3.35;;;;;;;8.99;62.81;101722.00;4947654;29;20043;-67
2024/01/23 00:28:40;;;;;;;17.48;2.78;;;;;;;8.99;63.25;101724.66;4946617;29;20051;-67
2024/01/23 00:31:07;;;;;;;17.27;4.18;;;;;;;8.98;63.20;101730.22;4947316;29;20051;-68
2024/01/23 00:33:35;;;;;;;14.88;3.35;;;;;;;8.98;64.55;101736.41;4943869;29;20060;-66
2024/01/23 00:36:05;;;;;;;17.45;4.05;;;;;;;8.94;63.86;101731.63;4948343;29;20059;-66
2024/01/23 00:38:33;;;;;;;12.65;2.83;;;;;;;8.94;64.30;101737.81;4945278;29;20506;-68
2024/01/23 00:41:01;;;;;;;16.30;2.72;;;;;;;8.93;64.31;101736.16;4941245;29;20068;-67
2024/01/23 00:43:29;;;;;;;18.35;3.65;;;;;;;8.94;64.18;101750.38;4939847;29;20059;-67
2024/01/23 00:45:57;;;;;;;14.45;3.25;;;;;;;8.93;63.32;101743.34;4941168;29;20059;-67
2024/01/23 00:48:25;;;;;;;18.33;3.33;;;;;;;8.91;63.86;101780.25;4938342;29;20108;-67
2024/01/23 00:50:53;;;;;;;22.50;4.07;;;;;;;8.91;63.55;101782.94;4945095;29;20122;-67
2024/01/23 00:53:22;;;;;;;14.77;3.40;;;;;;;8.90;63.66;101783.94;4944536;29;20082;-67
2024/01/23 00:55:50;;;;;;;22.13;4.35;;;;;;;8.85;62.56;101781.84;4945905;29;20055;-68
2024/01/23 00:58:18;;;;;;;15.05;3.25;;;;;;;8.90;63.72;101784.78;4955283;29;20087;-66
2024/01/23 01:00:46;;;;;;;16.73;3.42;;;;;;;8.90;63.14;101770.53;4938058;29;20052;-66
2024/01/23 01:03:14;;;;;;;18.17;3.20;;;;;;;8.87;63.31;101801.25;4947158;29;20087;-66
2024/01/23 01:05:42;;;;;;;20.83;3.22;;;;;;;8.86;62.99;101786.19;4947558;29;20082;-67
2024/01/23 01:08:11;;;;;;;20.73;3.33;;;;;;;8.86;63.06;101796.91;4942116;29;20079;-67
2024/01/23 01:10:40;;;;;;;20.60;5.07;;;;;;;8.85;63.82;101778.31;4946207;29;20051;-67
2024/01/23 01:13:09;;;;;;;13.30;3.78;;;;;;;8.85;63.17;101795.22;4942863;29;20048;-68
2024/01/23 01:15:38;;;;;;;19.10;3.83;;;;;;;8.82;63.27;101809.84;4941060;29;20054;-67
2024/01/23 01:18:07;;;;;;;17.90;3.13;;;;;;;8.81;62.96;101810.84;4947401;29;20182;-68
2024/01/23 01:20:36;;;;;;;18.02;3.47;;;;;;;8.77;62.84;101801.53;4941701;29;20402;-67
2024/01/23 01:23:04;;;;;;;20.60;3.65;;;;;;;8.77;62.75;101825.66;4941210;29;20052;-68
2024/01/23 01:25:32;;;;;;;16.95;3.53;;;;;;;8.77;63.31;101848.94;4944557;29;20058;-67
2024/01/23 01:28:01;;;;;;;17.27;4.15;;;;;;;8.74;62.53;101839.41;4946122;29;20454;-67
2024/01/23 01:30:29;;;;;;;17.33;2.97;;;;;;;8.75;62.35;101837.56;4937003;29;20052;-67
2024/01/23 01:32:57;;;;;;;17.20;3.80;;;;;;;8.73;62.30;101845.81;4944752;29;20058;-67
2024/01/23 01:35:25;;;;;;;19.60;3.70;;;;;;;8.74;61.67;101855.50;4945811;29;20058;-67
2024/01/23 01:37:53;;;;;;;21.42;4.15;;;;;;;8.69;61.95;101838.31;4946068;29;20078;-67
2024/01/23 01:40:21;;;;;;;15.98;4.32;;;;;;;8.74;62.01;101849.31;4940973;29;20076;-67
2024/01/23 01:42:49;;;;;;;15.20;4.00;;;;;;;8.63;61.81;101839.09;4943664;29;20044;-67
2024/01/23 01:45:18;;;;;;;18.83;3.97;;;;;;;8.66;62.33;101852.94;4940317;29;20047;-68
2024/01/23 01:47:47;;;;;;;23.80;3.83;;;;;;;8.68;62.18;101858.91;4945757;29;20070;-68
2024/01/23 01:50:15;;;;;;;16.73;3.45;;;;;;;8.62;61.47;101853.50;4946446;29;20059;-67
2024/01/23 01:52:44;;;;;;;16.70;3.25;;;;;;;8.62;62.31;101853.50;4946104;29;20040;-68
2024/01/23 01:55:12;;;;;;;15.10;3.20;;;;;;;8.62;61.70;101866.91;4937070;29;20055;-68
2024/01/23 01:57:41;;;;;;;13.90;4.00;;;;;;;8.61;62.14;101863.38;4944190;29;20062;-68
2024/01/23 02:00:09;;;;;;;13.00;3.22;;;;;;;8.61;61.37;101875.94;4945918;29;20130;-68
2024/01/23 02:02:41;;;;;;;14.55;3.25;;;;;;;8.59;61.86;101878.81;4945269;29;20110;-67
2024/01/23 02:05:09;;;;;;;14.48;3.13;;;;;;;8.58;61.93;101905.78;4945983;29;20052;-68
2024/01/23 02:07:38;;;;;;;11.60;3.28;;;;;;;8.58;62.00;101911.16;4955941;29;20107;-67
2024/01/23 02:10:07;;;;;;;18.73;3.50;;;;;;;8.58;61.74;101908.47;4941263;29;20506;-68
2024/01/23 02:12:35;;;;;;;17.25;3.03;;;;;;;8.55;62.24;101919.56;4937623;29;20107;-68
2024/01/23 02:15:03;;;;;;;19.40;3.50;;;;;;;8.55;61.89;101941.81;4945793;29;20051;-67
2024/01/23 02:17:31;;;;;;;19.70;3.40;;;;;;;8.56;63.33;101931.94;4945384;29;20056;-67
2024/01/23 02:20:00;;;;;;;12.23;2.65;;;;;;;8.55;62.82;101938.31;4945258;29;20522;-68
2024/01/23 02:22:29;;;;;;;15.68;4.85;;;;;;;8.54;62.74;101942.84;4943894;29;20250;-67
2024/01/23 02:24:58;;;;;;;18.08;3.58;;;;;;;8.54;63.06;101923.25;4940726;29;20048;-67
2024/01/23 02:27:26;;;;;;;25.20;3.67;;;;;;;8.54;62.81;101925.94;4945356;29;20086;-67
2024/01/23 02:29:54;;;;;;;17.63;5.53;;;;;;;8.55;61.84;101946.34;4944561;29;20051;-67
2024/01/23 02:32:21;;;;;;;15.35;3.30;;;;;;;8.56;62.82;101950.69;4943396;29;20047;-66
2024/01/23 02:34:49;;;;;;;17.23;3.10;;;;;;;8.54;62.62;101952.72;4945419;29;20062;-68
2024/01/23 02:37:17;;;;;;;14.02;3.53;;;;;;;8.56;62.87;101956.88;4940414;29;20056;-67
2024/01/23 02:39:45;;;;;;;12.77;3.15;;;;;;;8.55;63.22;101960.56;4943616;29;20078;-67
2024/01/23 02:42:14;;;;;;;20.05;5.38;;;;;;;8.55;62.31;101968.63;4941849;29;20145;-67
2024/01/23 02:44:45;;;;;;;17.35;3.53;;;;;;;8.52;62.35;101960.94;4945856;29;20059;-67
2024/01/23 02:47:13;;;;;;;14.57;3.10;;;;;;;8.54;62.21;101977.66;4943593;29;20058;-68
2024/01/23 02:49:41;;;;;;;18.15;3.28;;;;;;;8.52;62.55;101976.19;4945157;29;20126;-67
2024/01/23 02:52:09;;;;;;;17.75;3.83;;;;;;;8.49;62.51;101974.69;4943155;29;20172;-67
2024/01/23 02:54:37;;;;;;;16.20;3.10;;;;;;;8.50;62.50;101989.75;4948709;29;20051;-67
2024/01/23 02:57:06;;;;;;;18.48;3.92;;;;;;;8.49;62.79;101993.44;4947785;29;20110;-67
2024/01/23 02:59:35;;;;;;;16.95;3.13;;;;;;;8.47;62.41;101990.13;4948865;29;20082;-67
2024/01/23 03:02:03;;;;;;;15.35;3.47;;;;;;;8.46;63.03;101991.97;4947131;29;20440;-67
2024/01/23 03:04:31;;;;;;;24.23;4.43;;;;;;;8.46;62.73;102012.56;4949353;29;20051;-68
2024/01/23 03:06:58;;;;;;;15.45;3.20;;;;;;;8.44;62.42;102022.63;4949240;29;20055;-66
2024/01/23 03:09:26;;;;;;;15.93;3.35;;;;;;;8.45;62.98;102022.44;4947986;29;20059;-67
2024/01/23 03:11:55;;;;;;;19.48;3.40;;;;;;;8.44;62.40;102023.47;4949165;29;20075;-67
2024/01/23 03:14:22;;;;;;;19.83;3.45;;;;;;;8.38;63.24;102012.63;4943806;29;20081;-66
2024/01/23 03:16:52;;;;;;;20.50;3.63;;;;;;;8.44;63.24;102026.13;4948513;29;20085;-67
2024/01/23 03:19:19;;;;;;;18.42;3.30;;;;;;;8.42;63.58;102035.34;4947662;29;20052;-67
2024/01/23 03:21:47;;;;;;;22.08;4.05;;;;;;;8.40;62.94;102027.50;4947872;29;20052;-67
2024/01/23 03:24:15;;;;;;;20.55;4.88;;;;;;;8.39;63.42;102049.13;4948941;29;20047;-67
2024/01/23 03:26:43;;;;;;;25.10;3.53;;;;;;;8.39;63.98;102057.16;4954451;29;20523;-67
2024/01/23 03:29:11;;;;;;;21.98;3.95;;;;;;;8.38;63.00;102069.72;4947098;29;20145;-67
2024/01/23 03:31:39;;;;;;;16.17;3.92;;;;;;;8.36;63.81;102058.34;4947330;29;20095;-66
2024/01/23 03:34:08;;;;;;;19.30;4.00;;;;;;;8.35;63.18;102067.38;4941339;29;20171;-66
2024/01/23 03:36:36;;;;;;;20.90;4.30;;;;;;;8.35;63.97;102067.38;4942669;29;20490;-66
2024/01/23 03:39:04;;;;;;;17.27;3.70;;;;;;;8.34;63.21;102054.16;4949292;29;20062;-67
2024/01/23 03:41:32;;;;;;;19.80;4.57;;;;;;;8.32;63.72;102059.66;4940425;29;20052;-67
2024/01/23 03:44:00;;;;;;;15.80;4.30;;;;;;;8.31;64.43;102068.72;4947341;29;20426;-67
2024/01/23 03:46:27;;;;;;;21.75;4.13;;;;;;;8.29;63.59;102075.25;4948562;29;20066;-68
2024/01/23 03:48:55;;;;;;;27.05;3.97;;;;;;;8.29;63.41;102068.06;4946164;29;20047;-66
2024/01/23 03:51:25;;;;;;;19.00;3.95;;;;;;;8.29;63.27;102080.63;4945381;29;20513;-67
2024/01/23 03:53:52;;;;;;;14.38;3.35;;;;;;;8.29;63.37;102077.94;4946429;29;20040;-66
2024/01/23 03:56:22;;;;;;;20.30;4.28;;;;;;;8.27;63.41;102096.03;4944945;29;20105;-67
2024/01/23 03:58:50;;;;;;;17.23;3.33;;;;;;;8.25;63.56;102106.91;4960228;29;20051;-68
2024/01/23 04:01:18;;;;;;;22.10;4.05;;;;;;;8.26;63.24;102115.78;4945539;29;20051;-68
2024/01/23 04:03:46;;;;;;;17.40;3.65;;;;;;;8.26;63.77;102116.63;4952649;29;20463;-68
2024/01/23 04:06:14;;;;;;;18.25;3.70;;;;;;;8.16;63.57;102102.59;4953454;29;20059;-68
2024/01/23 04:08:44;;;;;;;19.08;3.72;;;;;;;8.22;64.33;102120.66;4952785;29;20059;-68
2024/01/23 04:11:12;;;;;;;17.90;3.20;;;;;;;8.23;63.89;102111.63;4945751;29;20056;-67
2024/01/23 04:13:40;;;;;;;17.23;3.50;;;;;;;8.22;63.84;102109.09;4954417;29;20039;-67
2024/01/23 04:16:08;;;;;;;16.50;3.90;;;;;;;8.22;63.83;102117.16;4956080;29;20568;-67
2024/01/23 04:18:36;;;;;;;23.00;4.13;;;;;;;8.21;64.30;102127.03;4955082;29;20143;-67
2024/01/23 04:21:07;;;;;;;25.35;4.15;;;;;;;8.19;64.19;102125.53;4946276;29;20056;-68
2024/01/23 04:23:35;;;;;;;14.23;4.05;;;;;;;8.20;63.78;102127.19;4949629;29;20138;-67
2024/01/23 04:26:06;;;;;;;26.83;3.65;;;;;;;8.19;63.33;102139.75;4952278;29;20047;-68
2024/01/23 04:28:34;;;;;;;13.43;3.05;;;;;;;8.18;63.91;102140.75;4948996;29;20044;-68
2024/01/23 04:31:02;;;;;;;14.02;3.28;;;;;;;8.17;63.66;102139.09;4948638;29;20043;-67
2024/01/23 04:33:30;;;;;;;16.40;3.55;;;;;;;8.16;64.08;102140.94;4943362;29;20047;-67
2024/01/23 04:35:58;;;;;;;22.13;4.13;;;;;;;8.15;64.23;102146.47;4948440;29;20047;-67
2024/01/23 04:38:26;;;;;;;24.33;4.05;;;;;;;8.13;64.04;102151.16;4944805;29;20081;-68
2024/01/23 04:40:54;;;;;;;22.85;3.38;;;;;;;8.12;64.25;102169.06;4945113;29;20103;-67
2024/01/23 04:43:23;;;;;;;14.70;3.42;;;;;;;8.11;63.30;102177.28;4941455;29;20044;-68
2024/01/23 04:45:50;;;;;;;19.45;3.97;;;;;;;8.11;63.84;102193.34;4943857;29;20517;-68
2024/01/23 04:48:18;;;;;;;13.13;4.15;;;;;;;8.09;63.45;102193.50;4948556;29;20107;-68
2024/01/23 04:50:45;;;;;;;19.85;4.20;;;;;;;8.10;63.47;102189.00;4945744;29;20055;-68
2024/01/23 04:53:13;;;;;;;16.80;4.25;;;;;;;8.11;64.03;102209.41;4946423;29;20057;-68
2024/01/23 04:55:41;;;;;;;16.23;3.15;;;;;;;8.09;63.82;102204.22;4941249;29;20152;-67
2024/01/23 04:58:09;;;;;;;18.58;4.00;;;;;;;8.08;63.38;102202.56;4944107;29;20189;-69
2024/01/23 05:00:38;;;;;;;17.98;4.28;;;;;;;8.06;64.38;102204.56;4944928;29;20054;-67
2024/01/23 05:03:06;;;;;;;18.65;4.45;;;;;;;8.06;64.46;102209.09;4946478;29;20142;-67
2024/01/23 05:05:34;;;;;;;20.65;5.38;;;;;;;8.05;63.14;102218.13;4943630;29;20087;-67
2024/01/23 05:08:03;;;;;;;18.30;3.33;;;;;;;8.05;63.33;102224.31;4944048;29;20051;-67
2024/01/23 05:10:30;;;;;;;16.00;2.80;;;;;;;8.04;63.92;102230.69;4945732;29;20111;-67
2024/01/23 05:12:58;;;;;;;14.70;3.15;;;;;;;8.04;63.69;102244.06;4944333;29;20075;-70
2024/01/23 05:15:26;;;;;;;15.88;2.80;;;;;;;8.04;63.39;102257.44;4948078;29;20059;-73
2024/01/23 05:17:55;;;;;;;18.77;3.92;;;;;;;8.04;64.35;102261.97;4946376;29;20062;-68
2024/01/23 05:20:23;;;;;;;20.92;3.22;;;;;;;8.02;64.38;102255.94;4947503;29;20142;-68
2024/01/23 05:22:51;;;;;;;18.58;3.67;;;;;;;8.04;64.21;102259.28;4943304;29;20047;-67
2024/01/23 05:25:19;;;;;;;17.73;3.42;;;;;;;8.04;64.47;102261.97;4946824;29;20059;-67
2024/01/23 05:27:47;;;;;;;16.25;4.80;;;;;;;8.04;64.13;102264.66;4942407;29;20486;-67
2024/01/23 05:30:15;;;;;;;17.75;4.03;;;;;;;8.04;63.50;102267.31;4945103;29;20506;-67
2024/01/23 05:32:44;;;;;;;24.02;3.58;;;;;;;8.02;63.88;102258.63;4941568;29;20062;-68
2024/01/23 05:35:13;;;;;;;17.48;3.55;;;;;;;8.03;64.24;102263.81;4945679;29;20083;-68
2024/01/23 05:37:41;;;;;;;19.40;4.00;;;;;;;8.02;63.86;102266.66;4940487;29;20116;-67
2024/01/23 05:40:11;;;;;;;19.25;3.78;;;;;;;8.00;63.18;102268.66;4944957;29;20532;-67
2024/01/23 05:42:39;;;;;;;16.63;4.32;;;;;;;8.00;63.75;102282.06;4945725;29;20047;-67
2024/01/23 05:45:08;;;;;;;15.52;3.28;;;;;;;7.99;63.44;102291.94;4946485;29;20114;-67
2024/01/23 05:47:36;;;;;;;17.75;3.70;;;;;;;7.97;63.47;102299.28;4948087;29;20059;-67
2024/01/23 05:50:04;;;;;;;18.67;4.25;;;;;;;7.89;64.26;102301.13;4939456;29;20506;-67
2024/01/23 05:52:34;;;;;;;21.23;5.13;;;;;;;7.96;63.88;102315.53;4943440;29;20489;-66
2024/01/23 05:55:02;;;;;;;18.13;4.13;;;;;;;7.95;63.49;102328.06;4944294;29;20502;-67
2024/01/23 05:57:30;;;;;;;20.45;4.80;;;;;;;7.94;63.10;102333.59;4950324;28;20126;-66
2024/01/23 05:59:59;;;;;;;22.70;3.28;;;;;;;7.93;63.92;102332.75;4966187;29;20066;-66
2024/01/23 06:02:27;;;;;;;24.10;4.93;;;;;;;7.93;64.20;102337.28;4949699;29;20051;-67
2024/01/23 06:04:55;;;;;;;16.85;3.38;;;;;;;7.92;64.56;102341.78;4961482;29;20043;-67
2024/01/23 06:07:23;;;;;;;16.45;3.70;;;;;;;7.92;63.32;102338.28;4965467;29;20055;-68
2024/01/23 06:09:52;;;;;;;16.33;3.88;;;;;;;7.92;64.56;102346.31;4964365;29;20051;-67
2024/01/23 06:12:20;;;;;;;13.43;3.35;;;;;;;7.91;64.51;102337.44;4963618;29;20070;-69
2024/01/23 06:14:48;;;;;;;13.40;3.20;;;;;;;7.90;64.04;102337.59;4964029;29;20085;-69
2024/01/23 06:17:15;;;;;;;13.30;2.90;;;;;;;7.83;63.98;102332.94;4965137;29;20051;-69
2024/01/23 06:19:43;;;;;;;14.48;2.75;;;;;;;7.88;65.17;102344.97;4965838;29;20118;-67
2024/01/23 06:22:11;;;;;;;20.30;4.35;;;;;;;7.84;64.53;102339.94;4952660;28;20089;-69
2024/01/23 06:25:02;;;;;;;19.23;3.97;;;;;;;7.85;64.10;102348.81;4963391;28;20110;-68
2024/01/23 06:27:29;;;;;;;14.30;3.60;;;;;;;7.84;65.10;102350.66;4616748;28;10000141;-70
2024/01/23 06:29:58;;;;;;;11.98;3.58;;;;;;;7.84;64.28;102357.84;4960825;29;20806;-67
2024/01/23 06:32:26;;;;;;;18.85;4.20;;;;;;;7.83;64.71;102357.00;4950716;29;20047;-67
2024/01/23 06:34:54;;;;;;;14.38;3.28;;;;;;;7.83;65.07;102369.56;4960021;28;20053;-68
2024/01/23 06:37:22;;;;;;;12.35;3.30;;;;;;;7.82;64.42;102373.25;4956617;29;20055;-69
2024/01/23 06:39:50;;;;;;;14.05;4.05;;;;;;;7.81;64.91;102379.59;4959635;29;20091;-65
2024/01/23 06:42:24;;;;;;;27.73;5.40;;;;;;;7.82;64.30;102391.97;4960524;29;20082;-69
2024/01/23 06:44:51;;;;;;;20.08;3.33;;;;;;;7.82;64.23;102394.66;4959291;29;20043;-69
2024/01/23 06:47:19;;;;;;;17.00;3.88;;;;;;;7.80;64.62;102391.31;4960080;29;20047;-72
2024/01/23 06:49:47;;;;;;;17.35;3.90;;;;;;;7.81;64.51;102396.50;4959408;29;20082;-67
2024/01/23 06:52:15;;;;;;;16.02;4.05;;;;;;;7.81;65.38;102398.34;4950081;29;20067;-68
2024/01/23 06:54:43;;;;;;;16.20;2.63;;;;;;;7.80;64.47;102396.66;4961161;29;20039;-68
2024/01/23 06:57:10;;;;;;;16.77;3.67;;;;;;;7.78;64.76;102393.31;4958574;28;20055;-68
2024/01/23 06:59:40;;;;;;;15.48;3.13;;;;;;;7.78;64.20;102398.66;4938943;29;20082;-68
2024/01/23 07:02:07;;;;;;;16.55;5.10;;;;;;;7.77;64.20;102402.34;4941273;29;20087;-67
2024/01/23 07:04:35;;;;;;;12.10;3.05;;;;;;;7.77;65.05;102400.50;4940501;29;20052;-66
2024/01/23 07:07:03;;;;;;;23.33;4.55;;;;;;;7.75;64.86;102407.84;4932945;29;20075;-66
2024/01/23 07:09:31;;;;;;;17.88;3.28;;;;;;;7.75;64.37;102407.03;4940771;29;20080;-63
2024/01/23 07:11:59;;;;;;;20.58;4.45;;;;;;;7.67;64.65;102401.66;4939162;29;20071;-68
2024/01/23 07:14:27;;;;;;;19.08;4.30;;;;;;;7.68;65.24;102408.69;4944548;29;20047;-68
2024/01/23 07:16:56;;;;;;;17.23;3.72;;;;;;;7.67;64.76;102413.19;4945921;29;20059;-68
2024/01/23 07:19:24;;;;;;;16.23;3.78;;;;;;;7.68;64.23;102416.72;4946000;29;20300;-67
2024/01/23 07:21:52;;;;;;;14.10;4.18;;;;;;;7.69;64.85;102418.38;4941603;29;20075;-67
2024/01/23 07:24:20;;;;;;;18.85;4.03;;;;;;;7.67;64.72;102426.56;4945721;29;20153;-67
2024/01/23 07:26:47;;;;;;;15.43;3.78;;;;;;;7.67;65.43;102428.41;4938278;29;20070;-67
2024/01/23 07:29:15;;;;;;;18.80;3.55;;;;;;;7.67;64.81;102431.94;4944307;29;20067;-68
2024/01/23 07:31:43;;;;;;;17.80;3.47;;;;;;;7.55;65.04;102424.38;4943603;29;20051;-68
2024/01/23 07:34:12;;;;;;;11.15;3.95;;;;;;;7.63;64.46;102438.59;4946031;29;20047;-68
2024/01/23 07:36:40;;;;;;;20.85;4.20;;;;;;;7.63;64.37;102432.41;4943587;29;20063;-68
2024/01/23 07:39:09;;;;;;;20.80;3.47;;;;;;;7.61;65.00;102435.25;4942143;29;20059;-67
2024/01/23 07:41:37;;;;;;;17.65;3.90;;;;;;;7.63;65.34;102437.75;4948776;29;20062;-68
2024/01/23 07:44:05;;;;;;;18.30;4.57;;;;;;;7.62;64.28;102447.63;4948423;29;20048;-67
2024/01/23 07:46:32;;;;;;;12.20;3.08;;;;;;;7.61;65.19;102443.28;4943221;29;20047;-67
2024/01/23 07:49:00;;;;;;;14.10;3.65;;;;;;;7.54;65.06;102425.38;4949502;29;20055;-67
2024/01/23 07:51:44;;;;;;;22.95;3.90;;;;;;;7.59;64.62;102437.25;4947503;29;20307;-65
2024/01/23 07:54:12;;;;;;;18.02;4.03;;;;;;;7.58;64.77;102432.06;4947976;29;20138;-67
2024/01/23 07:56:40;;;;;;;17.15;3.67;;;;;;;7.58;64.91;102451.63;4939216;29;20055;-67
2024/01/23 07:59:08;;;;;;;16.52;3.30;;;;;;;7.49;65.15;102433.88;4946902;29;20056;-67
2024/01/23 08:01:37;;;;;;;16.77;3.80;;;;;;;7.56;65.29;102453.63;4941342;29;20099;-67
2024/01/23 08:04:05;;;;;;;12.43;3.22;;;;;;;7.56;65.23;102461.66;4961631;29;20085;-67
2024/01/23 08:06:34;;;;;;;17.60;3.78;;;;;;;7.55;65.21;102464.50;4955467;29;20058;-68
2024/01/23 08:09:04;;;;;;;16.52;3.25;;;;;;;7.56;64.85;102471.53;4950718;29;20134;-67
2024/01/23 08:11:32;;;;;;;15.57;3.50;;;;;;;7.54;64.90;102479.72;4946271;29;20075;-68
2024/01/23 08:14:00;;;;;;;16.75;3.80;;;;;;;7.54;64.92;102485.06;4947759;29;20051;-68
2024/01/23 08:16:28;;;;;;;14.10;3.80;;;;;;;7.53;65.00;102487.91;4948915;29;20122;-67
2024/01/23 08:18:58;;;;;;;13.75;3.00;;;;;;;7.44;65.38;102482.50;4946593;29;20474;-68
2024/01/23 08:21:26;;;;;;;22.50;3.83;;;;;;;7.54;65.31;102502.94;4942703;29;20470;-68
2024/01/23 08:23:55;;;;;;;21.67;4.38;;;;;;;7.55;65.11;102508.13;4943372;29;20062;-68
2024/01/23 08:26:23;;;;;;;18.17;3.92;;;;;;;7.54;65.17;102513.66;4948109;29;20099;-67
2024/01/23 08:28:59;;;;;;;19.00;3.53;;;;;;;7.53;65.21;102514.66;4946992;29;20048;-68
2024/01/23 08:31:27;;;;;;;19.83;4.03;;;;;;;7.50;64.76;102521.16;4943808;29;20089;-68
2024/01/23 08:33:55;;;;;;;14.93;4.03;;;;;;;7.50;65.33;102516.66;4963599;29;20056;-67
2024/01/23 08:36:23;;;;;;;10.57;3.35;;;;;;;7.50;65.12;102527.34;4946818;29;20082;-67
2024/01/23 08:38:51;;;;;;;20.42;5.18;;;;;;;7.50;65.08;102527.34;4947907;29;20463;-67
2024/01/23 08:41:20;;;;;;;15.43;3.70;;;;;;;7.49;65.44;102533.69;4947669;29;20055;-67
2024/01/23 08:43:48;;;;;;;17.27;3.88;;;;;;;7.46;64.71;102543.88;4937828;29;20051;-67
2024/01/23 08:46:17;;;;;;;18.85;5.15;;;;;;;7.48;65.55;102533.88;4948024;29;20578;-67
2024/01/23 08:48:45;;;;;;;12.32;2.92;;;;;;;7.49;65.20;102543.56;4944819;29;20127;-67
2024/01/23 08:51:13;;;;;;;19.17;3.40;;;;;;;7.49;65.74;102549.75;4946255;29;20051;-67
2024/01/23 08:53:42;;;;;;;18.67;3.58;;;;;;;7.49;64.99;102546.25;4946257;29;20051;-67
2024/01/23 08:56:10;;;;;;;18.88;4.35;;;;;;;7.50;65.10;102547.91;4945617;29;20043;-67
2024/01/23 08:58:39;;;;;;;17.95;3.80;;;;;;;7.47;64.82;102538.38;4930380;29;20064;-68
2024/01/23 09:01:07;;;;;;;20.85;3.60;;;;;;;7.47;65.63;102550.91;4966584;29;20059;-67
2024/01/23 09:03:36;;;;;;;16.90;3.30;;;;;;;7.47;65.13;102558.94;4947976;29;20063;-68
2024/01/23 09:06:05;;;;;;;16.23;3.45;;;;;;;7.46;64.73;102566.13;4963082;29;20043;-68
2024/01/23 09:08:32;;;;;;;18.88;4.68;;;;;;;7.45;65.50;102561.75;4946677;29;20411;-68
2024/01/23 09:11:00;;;;;;;24.83;4.82;;;;;;;7.45;65.41;102561.75;4945294;29;20115;-68
2024/01/23 09:13:30;;;;;;;17.73;4.90;;;;;;;7.44;65.50;102553.91;4946614;29;20067;-68
2024/01/23 09:15:59;;;;;;;19.55;4.43;;;;;;;7.44;65.43;102565.44;4948806;29;20086;-68
2024/01/23 09:18:28;;;;;;;13.60;4.13;;;;;;;7.44;65.17;102568.13;4930958;29;20056;-67
2024/01/23 09:20:58;;;;;;;12.35;4.22;;;;;;;7.44;65.32;102569.94;4946719;29;20056;-68
2024/01/23 09:23:26;;;;;;;19.00;3.45;;;;;;;7.44;65.29;102575.31;4942090;29;20047;-68
2024/01/23 09:25:54;;;;;;;16.48;3.38;;;;;;;7.41;64.71;102562.25;4946830;29;20047;-68
2024/01/23 09:28:22;;;;;;;18.15;3.50;;;;;;;7.45;65.38;102558.25;4949310;29;20146;-68
2024/01/23 09:30:49;;;;;;;27.48;5.25;;;;;;;7.45;65.31;102558.25;4945911;29;20065;-68
2024/01/23 09:33:19;;;;;;;22.13;4.20;;;;;;;7.45;64.98;102544.88;4945878;29;20047;-68
2024/01/23 09:35:48;;;;;;;16.85;3.60;;;;;;;7.46;65.70;102543.88;4953353;29;20082;-67
2024/01/23 09:38:16;;;;;;;15.48;3.88;;;;;;;7.46;65.16;102549.22;4956889;29;20087;-67
2024/01/23 09:40:49;;;;;;;19.50;3.42;;;;;;;7.47;65.99;102553.59;4947156;29;20066;-67
2024/01/23 09:43:20;;;;;;;20.20;4.45;;;;;;;7.48;65.67;102552.59;4941396;29;20056;-68
2024/01/23 09:45:48;;;;;;;14.85;2.92;;;;;;;7.46;65.92;102558.09;4946291;29;20136;-67
2024/01/23 09:48:16;;;;;;;20.30;4.45;;;;;;;7.43;65.08;102557.56;4945848;29;20052;-68
2024/01/23 09:50:46;;;;;;;24.92;5.65;;;;;;;7.47;65.18;102559.78;4940638;29;20070;-68
2024/01/23 09:53:14;;;;;;;26.13;6.32;;;;;;;7.46;65.27;102551.91;4946683;29;20198;-68
2024/01/23 09:55:42;;;;;;;22.20;4.93;;;;;;;7.50;65.78;102558.63;4945969;29;20043;-68
2024/01/23 09:58:10;;;;;;;17.77;3.70;;;;;;;7.50;65.59;102561.28;4939550;29;20059;-67
2024/01/23 10:00:39;;;;;;;16.27;4.15;;;;;;;7.51;66.17;102573.66;4944995;29;20055;-68
2024/01/23 10:03:10;;;;;;;23.02;4.50;;;;;;;7.50;65.91;102566.63;4939840;29;20048;-68
2024/01/23 10:05:38;;;;;;;18.17;4.00;;;;;;;7.51;65.26;102571.00;4945284;29;20063;-68
2024/01/23 10:08:09;;;;;;;22.08;4.85;;;;;;;7.51;65.71;102561.13;4945984;29;20063;-68
2024/01/23 10:10:37;;;;;;;24.10;4.03;;;;;;;7.52;66.09;102564.66;4944659;29;20047;-68
2024/01/23 10:13:04;;;;;;;19.63;3.15;;;;;;;7.53;65.99;102565.47;4945770;29;20414;-68
2024/01/23 10:15:32;;;;;;;15.07;5.38;;;;;;;7.53;65.77;102552.94;4941452;29;20048;-68
2024/01/23 10:18:00;;;;;;;17.45;3.72;;;;;;;7.56;65.94;102570.50;4935993;29;20052;-69
2024/01/23 10:20:30;;;;;;;18.40;4.43;;;;;;;7.58;65.97;102563.16;4946324;29;20051;-69
2024/01/23 10:22:59;;;;;;;20.77;4.50;;;;;;;7.58;66.18;102563.16;4943374;29;20806;-66
2024/01/23 10:25:30;;;;;;;22.83;4.45;;;;;;;7.60;65.99;102569.19;4927252;29;20056;-67
2024/01/23 10:27:58;;;;;;;21.50;3.90;;;;;;;7.61;65.81;102568.19;4945805;29;20052;-68
2024/01/23 10:30:27;;;;;;;21.98;4.15;;;;;;;7.62;65.23;102570.72;4932452;29;20493;-68
2024/01/23 10:32:54;;;;;;;22.58;3.90;;;;;;;7.63;65.71;102572.38;4946807;29;20071;-67
2024/01/23 10:35:22;;;;;;;16.25;3.97;;;;;;;7.63;65.47;102572.38;4938659;29;20056;-68
2024/01/23 10:37:52;;;;;;;20.08;5.53;;;;;;;7.66;65.67;102579.25;4937529;29;20056;-67
2024/01/23 10:40:23;;;;;;;18.23;4.18;;;;;;;7.67;65.99;102572.91;4935121;29;20082;-68
2024/01/23 10:42:53;;;;;;;24.33;4.70;;;;;;;7.67;65.72;102570.22;4943182;29;20815;-68
2024/01/23 10:45:21;;;;;;;17.02;4.80;;;;;;;7.65;65.74;102564.22;4930889;29;20055;-68
2024/01/23 10:47:51;;;;;;;25.23;4.50;;;;;;;7.68;65.46;102563.88;4946264;29;20047;-68
2024/01/23 10:50:21;;;;;;;15.77;4.20;;;;;;;7.68;65.67;102558.53;4946552;29;20051;-68
2024/01/23 10:52:50;;;;;;;18.40;4.18;;;;;;;7.67;65.55;102540.81;4940401;29;20410;-68
2024/01/23 10:55:18;;;;;;;23.77;4.05;;;;;;;7.71;65.96;102540.31;4959688;29;20057;-68
2024/01/23 10:57:46;;;;;;;22.17;4.32;;;;;;;7.73;65.55;102543.66;4937552;29;20049;-69
2024/01/23 11:00:19;;;;;;;17.98;4.65;;;;;;;7.80;65.67;102541.19;4946053;29;20055;-69
2024/01/23 11:02:53;;;;;;;23.40;4.15;;;;;;;7.94;64.55;102547.75;4941669;29;20103;-68
2024/01/23 11:05:27;;;;;;;21.55;4.68;;;;;;;8.10;64.93;102545.97;4942980;29;20056;-68
2024/01/23 11:07:58;;;;;;;14.43;3.53;;;;;;;8.31;64.51;102552.69;4945938;29;20052;-68
2024/01/23 11:10:34;;;;;;;17.40;4.13;;;;;;;8.44;63.38;102548.56;4945390;29;20139;-68
2024/01/23 11:13:11;;;;;;;26.70;5.00;;;;;;;8.64;63.17;102549.06;4944564;29;20048;-68
2024/01/23 11:15:40;;;;;;;20.33;4.43;;;;;;;8.84;62.01;102532.63;4947477;29;20130;-68
2024/01/23 11:18:32;;;;;;;19.45;4.20;;;;;;;9.03;61.99;102516.16;4947917;29;20062;-68
2024/01/23 11:21:11;;;;;;;22.13;6.03;;;;;;;9.19;61.35;102513.44;4949637;29;20063;-69
2024/01/23 11:23:41;;;;;;;17.27;4.22;;;;;;;9.36;60.71;102508.88;4952368;29;20052;-68
2024/01/23 11:26:16;;;;;;;20.52;4.43;;;;;;;9.49;60.21;102482.31;4944918;29;20052;-68
2024/01/23 11:28:46;;;;;;;15.50;4.47;;;;;;;9.65;60.22;102471.50;4947989;29;20056;-70
2024/01/23 11:31:17;;;;;;;20.00;4.22;;;;;;;9.73;59.86;102481.34;4946601;29;20052;-69